Terminal Aerodrome Forecast
Issued by NWS Pueblo, CO

Home | Current Version | Previous Version | Text Only | Print | Product List | Glossary On
Versions: 1 2 3 4 5 6 7 8 9 10 11 12 13 14 15 16 17 18 19 20 21
000
FTUS45 KPUB 290523
TAFALS
TAF
KALS 290523Z 2906/3006 VRB05KT P6SM VCSH SCT060 SCT070 BKN120
     FM290900 12012G22KT 2SM -SHSN BR SCT010 OVC020
     FM291400 06014G24KT 3SM -SN SCT015 OVC030=

USA.gov is the U.S. government's official web portal to all federal, state and local government web resources and services.